sensor_id;sensor_type;location;lat;lon;timestamp;temperature;humidity
13980;DHT22;73871;49.900;8.594;2024-03-02T00:00:14;5.10;99.90
13980;DHT22;73871;49.900;8.594;2024-03-02T00:02:44;5.10;99.90
13980;DHT22;73871;49.900;8.594;2024-03-02T00:05:12;5.10;99.90
13980;DHT22;73871;49.900;8.594;2024-03-02T00:07:42;5.10;99.90
13980;DHT22;73871;49.900;8.594;2024-03-02T00:10:10;5.10;99.90
13980;DHT22;73871;49.900;8.594;2024-03-02T00:12:38;5.10;99.90
13980;DHT22;73871;49.900;8.594;2024-03-02T00:15:20;5.10;99.90
13980;DHT22;73871;49.900;8.594;2024-03-02T00:17:55;5.10;99.90
13980;DHT22;73871;49.900;8.594;2024-03-02T00:20:23;5.10;99.90
13980;DHT22;73871;49.900;8.594;2024-03-02T00:22:50;5.10;99.90
13980;DHT22;73871;49.900;8.594;2024-03-02T00:25:18;5.10;99.90
13980;DHT22;73871;49.900;8.594;2024-03-02T00:27:48;5.10;99.90
13980;DHT22;73871;49.900;8.594;2024-03-02T00:33:27;5.10;99.90
13980;DHT22;73871;49.900;8.594;2024-03-02T00:35:55;5.10;99.90
13980;DHT22;73871;49.900;8.594;2024-03-02T00:38:23;5.10;99.90
13980;DHT22;73871;49.900;8.594;2024-03-02T00:40:50;5.10;99.90
13980;DHT22;73871;49.900;8.594;2024-03-02T00:46:18;5.10;99.90
13980;DHT22;73871;49.900;8.594;2024-03-02T00:48:55;5.10;99.90
13980;DHT22;73871;49.900;8.594;2024-03-02T00:51:24;5.00;99.90
13980;DHT22;73871;49.900;8.594;2024-03-02T00:53:52;5.00;99.90
13980;DHT22;73871;49.900;8.594;2024-03-02T00:56:22;5.00;99.90
13980;DHT22;73871;49.900;8.594;2024-03-02T00:58:50;5.00;99.90
13980;DHT22;73871;49.900;8.594;2024-03-02T01:01:17;4.90;99.90
13980;DHT22;73871;49.900;8.594;2024-03-02T01:03:44;4.80;99.90
13980;DHT22;73871;49.900;8.594;2024-03-02T01:06:10;4.70;99.90
13980;DHT22;73871;49.900;8.594;2024-03-02T01:08:38;4.70;99.90
13980;DHT22;73871;49.900;8.594;2024-03-02T01:11:05;4.60;99.90
13980;DHT22;73871;49.900;8.594;2024-03-02T01:13:32;4.50;99.90
13980;DHT22;73871;49.900;8.594;2024-03-02T01:15:59;4.50;99.90
13980;DHT22;73871;49.900;8.594;2024-03-02T01:18:26;4.40;99.90
13980;DHT22;73871;49.900;8.594;2024-03-02T01:20:53;4.40;99.90
13980;DHT22;73871;49.900;8.594;2024-03-02T01:23:23;4.40;99.90
13980;DHT22;73871;49.900;8.594;2024-03-02T01:25:51;4.40;99.90
13980;DHT22;73871;49.900;8.594;2024-03-02T01:28:18;4.40;99.90
13980;DHT22;73871;49.900;8.594;2024-03-02T01:30:46;4.40;99.90
13980;DHT22;73871;49.900;8.594;2024-03-02T01:33:13;4.40;99.90
13980;DHT22;73871;49.900;8.594;2024-03-02T01:35:40;4.40;99.90
13980;DHT22;73871;49.900;8.594;2024-03-02T01:38:06;4.30;99.90
13980;DHT22;73871;49.900;8.594;2024-03-02T01:40:37;4.30;99.90
13980;DHT22;73871;49.900;8.594;2024-03-02T01:43:05;4.30;99.90
13980;DHT22;73871;49.900;8.594;2024-03-02T01:45:32;4.30;99.90
13980;DHT22;73871;49.900;8.594;2024-03-02T01:47:59;4.30;99.90
13980;DHT22;73871;49.900;8.594;2024-03-02T01:50:31;4.30;99.90
13980;DHT22;73871;49.900;8.594;2024-03-02T01:52:59;4.30;99.90
13980;DHT22;73871;49.900;8.594;2024-03-02T01:55:26;4.30;99.90
13980;DHT22;73871;49.900;8.594;2024-03-02T01:57:55;4.20;99.90
13980;DHT22;73871;49.900;8.594;2024-03-02T02:00:22;4.20;99.90
13980;DHT22;73871;49.900;8.594;2024-03-02T02:02:51;4.20;99.90
13980;DHT22;73871;49.900;8.594;2024-03-02T02:05:18;4.20;99.90
13980;DHT22;73871;49.900;8.594;2024-03-02T02:07:45;4.20;99.90
13980;DHT22;73871;49.900;8.594;2024-03-02T02:10:12;4.20;99.90
13980;DHT22;73871;49.900;8.594;2024-03-02T02:12:39;4.20;99.90
13980;DHT22;73871;49.900;8.594;2024-03-02T02:15:28;4.10;99.90
13980;DHT22;73871;49.900;8.594;2024-03-02T02:17:56;4.10;99.90
13980;DHT22;73871;49.900;8.594;2024-03-02T02:20:24;4.10;99.90
13980;DHT22;73871;49.900;8.594;2024-03-02T02:22:58;4.00;99.90
13980;DHT22;73871;49.900;8.594;2024-03-02T02:25:26;4.00;99.90
13980;DHT22;73871;49.900;8.594;2024-03-02T02:27:53;3.90;99.90
13980;DHT22;73871;49.900;8.594;2024-03-02T02:30:25;3.80;99.90
13980;DHT22;73871;49.900;8.594;2024-03-02T02:32:53;3.70;99.90
13980;DHT22;73871;49.900;8.594;2024-03-02T02:35:20;3.70;99.90
13980;DHT22;73871;49.900;8.594;2024-03-02T02:37:47;3.60;99.90
13980;DHT22;73871;49.900;8.594;2024-03-02T02:40:15;3.60;99.90
13980;DHT22;73871;49.900;8.594;2024-03-02T02:42:42;3.60;99.90
13980;DHT22;73871;49.900;8.594;2024-03-02T02:45:09;3.60;99.90
13980;DHT22;73871;49.900;8.594;2024-03-02T02:47:37;3.60;99.90
13980;DHT22;73871;49.900;8.594;2024-03-02T02:50:06;3.60;99.90
13980;DHT22;73871;49.900;8.594;2024-03-02T02:52:38;3.60;99.90
13980;DHT22;73871;49.900;8.594;2024-03-02T02:55:08;3.60;99.90
13980;DHT22;73871;49.900;8.594;2024-03-02T02:57:35;3.50;99.90
13980;DHT22;73871;49.900;8.594;2024-03-02T03:00:09;3.50;99.90
13980;DHT22;73871;49.900;8.594;2024-03-02T03:02:37;3.40;99.90
13980;DHT22;73871;49.900;8.594;2024-03-02T03:05:09;3.40;99.90
13980;DHT22;73871;49.900;8.594;2024-03-02T03:07:37;3.50;99.90
13980;DHT22;73871;49.900;8.594;2024-03-02T03:10:07;3.50;99.90
13980;DHT22;73871;49.900;8.594;2024-03-02T03:12:34;3.50;99.90
13980;DHT22;73871;49.900;8.594;2024-03-02T03:15:02;3.40;99.90
13980;DHT22;73871;49.900;8.594;2024-03-02T03:17:29;3.40;99.90
13980;DHT22;73871;49.900;8.594;2024-03-02T03:19:56;3.30;99.90
13980;DHT22;73871;49.900;8.594;2024-03-02T03:22:22;3.30;99.90
13980;DHT22;73871;49.900;8.594;2024-03-02T03:24:49;3.30;99.90
13980;DHT22;73871;49.900;8.594;2024-03-02T03:27:16;3.30;99.90
13980;DHT22;73871;49.900;8.594;2024-03-02T03:29:43;3.20;99.90
13980;DHT22;73871;49.900;8.594;2024-03-02T03:32:09;3.20;99.90
13980;DHT22;73871;49.900;8.594;2024-03-02T03:34:36;3.10;99.90
13980;DHT22;73871;49.900;8.594;2024-03-02T03:37:03;3.10;99.90
13980;DHT22;73871;49.900;8.594;2024-03-02T03:39:30;3.20;99.90
13980;DHT22;73871;49.900;8.594;2024-03-02T03:41:57;3.20;99.90
13980;DHT22;73871;49.900;8.594;2024-03-02T03:44:24;3.20;99.90
13980;DHT22;73871;49.900;8.594;2024-03-02T03:46:51;3.30;99.90
13980;DHT22;73871;49.900;8.594;2024-03-02T03:49:17;3.30;99.90
13980;DHT22;73871;49.900;8.594;2024-03-02T03:51:44;3.30;99.90
13980;DHT22;73871;49.900;8.594;2024-03-02T03:54:11;3.20;99.90
13980;DHT22;73871;49.900;8.594;2024-03-02T03:56:38;3.20;99.90
13980;DHT22;73871;49.900;8.594;2024-03-02T03:59:04;3.20;99.90
13980;DHT22;73871;49.900;8.594;2024-03-02T04:01:31;3.10;99.90
13980;DHT22;73871;49.900;8.594;2024-03-02T04:03:58;3.10;99.90
13980;DHT22;73871;49.900;8.594;2024-03-02T04:06:25;3.00;99.90
13980;DHT22;73871;49.900;8.594;2024-03-02T04:08:52;3.00;99.90
13980;DHT22;73871;49.900;8.594;2024-03-02T04:11:18;3.00;99.90
13980;DHT22;73871;49.900;8.594;2024-03-02T04:13:45;3.10;99.90
13980;DHT22;73871;49.900;8.594;2024-03-02T04:16:12;3.10;99.90
13980;DHT22;73871;49.900;8.594;2024-03-02T04:18:39;3.10;99.90
13980;DHT22;73871;49.900;8.594;2024-03-02T04:21:06;3.20;99.90
13980;DHT22;73871;49.900;8.594;2024-03-02T04:23:33;3.20;99.90
13980;DHT22;73871;49.900;8.594;2024-03-02T04:25:59;3.20;99.90
13980;DHT22;73871;49.900;8.594;2024-03-02T04:28:26;3.20;99.90
13980;DHT22;73871;49.900;8.594;2024-03-02T04:30:53;3.20;99.90
13980;DHT22;73871;49.900;8.594;2024-03-02T04:33:20;3.10;99.90
13980;DHT22;73871;49.900;8.594;2024-03-02T04:35:47;3.10;99.90
13980;DHT22;73871;49.900;8.594;2024-03-02T04:38:14;3.10;99.90
13980;DHT22;73871;49.900;8.594;2024-03-02T04:40:40;3.10;99.90
13980;DHT22;73871;49.900;8.594;2024-03-02T04:43:07;3.10;99.90
13980;DHT22;73871;49.900;8.594;2024-03-02T04:45:38;3.20;99.90
13980;DHT22;73871;49.900;8.594;2024-03-02T04:48:05;3.10;99.90
13980;DHT22;73871;49.900;8.594;2024-03-02T04:50:32;3.10;99.90
13980;DHT22;73871;49.900;8.594;2024-03-02T04:52:59;3.00;99.90
13980;DHT22;73871;49.900;8.594;2024-03-02T04:55:25;3.00;99.90
13980;DHT22;73871;49.900;8.594;2024-03-02T04:57:55;3.00;99.90
13980;DHT22;73871;49.900;8.594;2024-03-02T05:00:23;3.00;99.90
13980;DHT22;73871;49.900;8.594;2024-03-02T05:02:50;2.90;99.90
13980;DHT22;73871;49.900;8.594;2024-03-02T05:05:17;2.90;99.90
13980;DHT22;73871;49.900;8.594;2024-03-02T05:07:44;2.90;99.90
13980;DHT22;73871;49.900;8.594;2024-03-02T05:10:11;3.00;99.90
13980;DHT22;73871;49.900;8.594;2024-03-02T05:12:38;3.00;99.90
13980;DHT22;73871;49.900;8.594;2024-03-02T05:15:23;3.00;99.90
13980;DHT22;73871;49.900;8.594;2024-03-02T05:17:50;2.90;99.90
13980;DHT22;73871;49.900;8.594;2024-03-02T05:20:17;2.80;99.90
13980;DHT22;73871;49.900;8.594;2024-03-02T05:22:43;2.80;99.90
13980;DHT22;73871;49.900;8.594;2024-03-02T05:25:11;2.70;99.90
13980;DHT22;73871;49.900;8.594;2024-03-02T05:27:37;2.80;99.90
13980;DHT22;73871;49.900;8.594;2024-03-02T05:30:04;2.80;99.90
13980;DHT22;73871;49.900;8.594;2024-03-02T05:32:36;2.70;99.90
13980;DHT22;73871;49.900;8.594;2024-03-02T05:35:03;2.80;99.90
13980;DHT22;73871;49.900;8.594;2024-03-02T05:37:29;2.80;99.90
13980;DHT22;73871;49.900;8.594;2024-03-02T05:39:56;2.70;99.90
13980;DHT22;73871;49.900;8.594;2024-03-02T05:42:23;2.70;99.90
13980;DHT22;73871;49.900;8.594;2024-03-02T05:44:50;2.80;99.90
13980;DHT22;73871;49.900;8.594;2024-03-02T05:47:17;2.80;99.90
13980;DHT22;73871;49.900;8.594;2024-03-02T05:49:44;2.80;99.90
13980;DHT22;73871;49.900;8.594;2024-03-02T05:52:11;2.80;99.90
13980;DHT22;73871;49.900;8.594;2024-03-02T05:54:39;2.80;99.90
13980;DHT22;73871;49.900;8.594;2024-03-02T05:57:05;2.80;99.90
13980;DHT22;73871;49.900;8.594;2024-03-02T06:00:00;2.80;99.90
13980;DHT22;73871;49.900;8.594;2024-03-02T06:02:27;2.70;99.90
13980;DHT22;73871;49.900;8.594;2024-03-02T06:04:56;2.60;99.90
13980;DHT22;73871;49.900;8.594;2024-03-02T06:07:23;2.60;99.90
13980;DHT22;73871;49.900;8.594;2024-03-02T06:09:50;2.60;99.90
13980;DHT22;73871;49.900;8.594;2024-03-02T06:12:18;2.60;99.90
13980;DHT22;73871;49.900;8.594;2024-03-02T06:14:46;2.70;99.90
13980;DHT22;73871;49.900;8.594;2024-03-02T06:17:12;2.70;99.90
13980;DHT22;73871;49.900;8.594;2024-03-02T06:19:39;2.80;99.90
13980;DHT22;73871;49.900;8.594;2024-03-02T06:22:06;2.80;99.90
13980;DHT22;73871;49.900;8.594;2024-03-02T06:24:32;2.90;99.90
13980;DHT22;73871;49.900;8.594;2024-03-02T06:26:59;2.90;99.90
13980;DHT22;73871;49.900;8.594;2024-03-02T06:29:26;3.00;99.90
13980;DHT22;73871;49.900;8.594;2024-03-02T06:31:53;3.10;99.90
13980;DHT22;73871;49.900;8.594;2024-03-02T06:34:20;3.20;99.90
13980;DHT22;73871;49.900;8.594;2024-03-02T06:36:47;3.30;99.90
13980;DHT22;73871;49.900;8.594;2024-03-02T06:39:14;3.30;99.90
13980;DHT22;73871;49.900;8.594;2024-03-02T06:41:41;3.40;99.90
13980;DHT22;73871;49.900;8.594;2024-03-02T06:44:09;3.50;99.90
13980;DHT22;73871;49.900;8.594;2024-03-02T06:46:35;3.50;99.90
13980;DHT22;73871;49.900;8.594;2024-03-02T06:49:02;3.50;99.90
13980;DHT22;73871;49.900;8.594;2024-03-02T06:51:30;3.50;99.90
13980;DHT22;73871;49.900;8.594;2024-03-02T06:53:57;3.50;99.90
13980;DHT22;73871;49.900;8.594;2024-03-02T06:56:24;3.40;99.90
13980;DHT22;73871;49.900;8.594;2024-03-02T06:58:51;3.40;99.90
13980;DHT22;73871;49.900;8.594;2024-03-02T07:01:18;3.30;99.90
13980;DHT22;73871;49.900;8.594;2024-03-02T07:03:50;3.30;99.90
13980;DHT22;73871;49.900;8.594;2024-03-02T07:06:17;3.30;99.90
13980;DHT22;73871;49.900;8.594;2024-03-02T07:08:44;3.30;99.90
13980;DHT22;73871;49.900;8.594;2024-03-02T07:11:10;3.30;99.90
13980;DHT22;73871;49.900;8.594;2024-03-02T07:13:37;3.40;99.90
13980;DHT22;73871;49.900;8.594;2024-03-02T07:16:04;3.40;99.90
13980;DHT22;73871;49.900;8.594;2024-03-02T07:18:49;3.50;99.90
13980;DHT22;73871;49.900;8.594;2024-03-02T07:21:18;3.50;99.90
13980;DHT22;73871;49.900;8.594;2024-03-02T07:23:45;3.60;99.90
13980;DHT22;73871;49.900;8.594;2024-03-02T07:26:12;3.70;99.90
13980;DHT22;73871;49.900;8.594;2024-03-02T07:28:42;3.70;99.90
13980;DHT22;73871;49.900;8.594;2024-03-02T07:31:10;3.80;99.90
13980;DHT22;73871;49.900;8.594;2024-03-02T07:33:37;3.80;99.90
13980;DHT22;73871;49.900;8.594;2024-03-02T07:36:04;3.90;99.90
13980;DHT22;73871;49.900;8.594;2024-03-02T07:38:31;4.00;99.90
13980;DHT22;73871;49.900;8.594;2024-03-02T07:41:00;4.10;99.90
13980;DHT22;73871;49.900;8.594;2024-03-02T07:43:27;4.50;99.90
13980;DHT22;73871;49.900;8.594;2024-03-02T07:45:54;5.10;99.90
13980;DHT22;73871;49.900;8.594;2024-03-02T07:48:20;5.30;99.90
13980;DHT22;73871;49.900;8.594;2024-03-02T07:50:47;5.80;99.90
13980;DHT22;73871;49.900;8.594;2024-03-02T07:53:14;6.70;99.90
13980;DHT22;73871;49.900;8.594;2024-03-02T07:55:41;7.80;99.90
13980;DHT22;73871;49.900;8.594;2024-03-02T07:58:08;8.00;99.90
13980;DHT22;73871;49.900;8.594;2024-03-02T08:00:35;7.70;99.90
13980;DHT22;73871;49.900;8.594;2024-03-02T08:03:02;7.40;99.90
13980;DHT22;73871;49.900;8.594;2024-03-02T08:05:30;7.30;99.90
13980;DHT22;73871;49.900;8.594;2024-03-02T08:07:57;7.40;99.90
13980;DHT22;73871;49.900;8.594;2024-03-02T08:10:23;7.50;99.90
13980;DHT22;73871;49.900;8.594;2024-03-02T08:12:50;7.50;99.90
13980;DHT22;73871;49.900;8.594;2024-03-02T08:15:17;7.70;99.90
13980;DHT22;73871;49.900;8.594;2024-03-02T08:17:44;7.80;99.90
13980;DHT22;73871;49.900;8.594;2024-03-02T08:20:15;7.80;99.90
13980;DHT22;73871;49.900;8.594;2024-03-02T08:22:42;7.80;99.90
13980;DHT22;73871;49.900;8.594;2024-03-02T08:25:09;7.70;99.90
13980;DHT22;73871;49.900;8.594;2024-03-02T08:27:37;7.70;99.90
13980;DHT22;73871;49.900;8.594;2024-03-02T08:30:05;7.70;99.90
13980;DHT22;73871;49.900;8.594;2024-03-02T08:32:34;8.10;99.90
13980;DHT22;73871;49.900;8.594;2024-03-02T08:35:01;8.40;99.90
13980;DHT22;73871;49.900;8.594;2024-03-02T08:37:28;8.50;99.90
13980;DHT22;73871;49.900;8.594;2024-03-02T08:39:55;8.90;99.90
13980;DHT22;73871;49.900;8.594;2024-03-02T08:42:22;8.80;99.90
13980;DHT22;73871;49.900;8.594;2024-03-02T08:44:49;8.60;99.90
13980;DHT22;73871;49.900;8.594;2024-03-02T08:47:17;8.70;99.90
13980;DHT22;73871;49.900;8.594;2024-03-02T08:49:43;9.20;99.90
13980;DHT22;73871;49.900;8.594;2024-03-02T08:52:10;9.70;99.90
13980;DHT22;73871;49.900;8.594;2024-03-02T08:54:37;10.20;99.90
13980;DHT22;73871;49.900;8.594;2024-03-02T08:57:05;10.50;99.90
13980;DHT22;73871;49.900;8.594;2024-03-02T08:59:32;10.70;99.90
13980;DHT22;73871;49.900;8.594;2024-03-02T09:01:59;11.00;99.90
13980;DHT22;73871;49.900;8.594;2024-03-02T09:04:26;10.80;99.90
13980;DHT22;73871;49.900;8.594;2024-03-02T09:06:55;11.00;99.90
13980;DHT22;73871;49.900;8.594;2024-03-02T09:09:22;11.20;99.90
13980;DHT22;73871;49.900;8.594;2024-03-02T09:11:49;12.10;99.90
13980;DHT22;73871;49.900;8.594;2024-03-02T09:14:16;13.30;99.90
13980;DHT22;73871;49.900;8.594;2024-03-02T09:16:43;14.20;99.90
13980;DHT22;73871;49.900;8.594;2024-03-02T09:19:09;14.70;99.90
13980;DHT22;73871;49.900;8.594;2024-03-02T09:21:37;14.90;99.90
13980;DHT22;73871;49.900;8.594;2024-03-02T09:24:04;15.20;99.90
13980;DHT22;73871;49.900;8.594;2024-03-02T09:26:33;15.40;99.90
13980;DHT22;73871;49.900;8.594;2024-03-02T09:29:00;16.30;99.90
13980;DHT22;73871;49.900;8.594;2024-03-02T09:31:26;17.00;99.90
13980;DHT22;73871;49.900;8.594;2024-03-02T09:33:53;17.90;99.90
13980;DHT22;73871;49.900;8.594;2024-03-02T09:36:21;18.80;99.90
13980;DHT22;73871;49.900;8.594;2024-03-02T09:38:48;18.30;99.90
13980;DHT22;73871;49.900;8.594;2024-03-02T09:41:15;17.40;99.90
13980;DHT22;73871;49.900;8.594;2024-03-02T09:43:42;16.70;99.90
13980;DHT22;73871;49.900;8.594;2024-03-02T09:46:10;16.40;99.90
13980;DHT22;73871;49.900;8.594;2024-03-02T09:48:37;16.10;99.90
13980;DHT22;73871;49.900;8.594;2024-03-02T09:51:04;15.60;99.90
13980;DHT22;73871;49.900;8.594;2024-03-02T09:53:32;15.70;99.90
13980;DHT22;73871;49.900;8.594;2024-03-02T09:56:00;15.50;99.90
13980;DHT22;73871;49.900;8.594;2024-03-02T09:58:27;15.60;99.90
13980;DHT22;73871;49.900;8.594;2024-03-02T10:00:54;15.50;99.90
13980;DHT22;73871;49.900;8.594;2024-03-02T10:03:22;15.80;99.90
13980;DHT22;73871;49.900;8.594;2024-03-02T10:05:51;16.90;99.90
13980;DHT22;73871;49.900;8.594;2024-03-02T10:08:18;17.10;99.90
13980;DHT22;73871;49.900;8.594;2024-03-02T10:10:45;17.40;99.90
13980;DHT22;73871;49.900;8.594;2024-03-02T10:13:13;16.70;99.90
13980;DHT22;73871;49.900;8.594;2024-03-02T10:15:41;16.50;99.90
13980;DHT22;73871;49.900;8.594;2024-03-02T10:18:10;15.20;99.90
13980;DHT22;73871;49.900;8.594;2024-03-02T10:20:39;14.40;99.90
13980;DHT22;73871;49.900;8.594;2024-03-02T10:23:13;14.60;99.90
13980;DHT22;73871;49.900;8.594;2024-03-02T10:25:41;14.90;99.90
13980;DHT22;73871;49.900;8.594;2024-03-02T10:28:20;15.10;99.90
13980;DHT22;73871;49.900;8.594;2024-03-02T10:30:48;15.20;99.90
13980;DHT22;73871;49.900;8.594;2024-03-02T10:33:17;15.60;99.90
13980;DHT22;73871;49.900;8.594;2024-03-02T10:35:44;16.10;99.90
13980;DHT22;73871;49.900;8.594;2024-03-02T10:38:11;16.80;99.90
13980;DHT22;73871;49.900;8.594;2024-03-02T10:40:39;16.50;99.90
13980;DHT22;73871;49.900;8.594;2024-03-02T10:43:07;16.60;99.90
13980;DHT22;73871;49.900;8.594;2024-03-02T10:45:35;16.70;99.90
13980;DHT22;73871;49.900;8.594;2024-03-02T10:48:03;16.50;99.90
13980;DHT22;73871;49.900;8.594;2024-03-02T10:50:32;16.60;99.90
13980;DHT22;73871;49.900;8.594;2024-03-02T10:52:59;16.80;99.90
13980;DHT22;73871;49.900;8.594;2024-03-02T10:55:26;16.70;99.90
13980;DHT22;73871;49.900;8.594;2024-03-02T10:57:55;16.50;99.90
13980;DHT22;73871;49.900;8.594;2024-03-02T11:00:25;16.30;99.90
13980;DHT22;73871;49.900;8.594;2024-03-02T11:03:02;16.30;99.90
13980;DHT22;73871;49.900;8.594;2024-03-02T11:05:40;16.30;99.90
13980;DHT22;73871;49.900;8.594;2024-03-02T11:08:13;16.40;99.90
13980;DHT22;73871;49.900;8.594;2024-03-02T11:10:50;16.10;99.90
13980;DHT22;73871;49.900;8.594;2024-03-02T11:13:22;16.10;99.90
13980;DHT22;73871;49.900;8.594;2024-03-02T11:15:55;16.00;99.90
13980;DHT22;73871;49.900;8.594;2024-03-02T11:18:26;16.20;99.90
13980;DHT22;73871;49.900;8.594;2024-03-02T11:20:53;16.00;99.90
13980;DHT22;73871;49.900;8.594;2024-03-02T11:23:32;16.20;99.90
13980;DHT22;73871;49.900;8.594;2024-03-02T11:26:22;16.50;99.90
13980;DHT22;73871;49.900;8.594;2024-03-02T11:28:51;16.50;99.90
13980;DHT22;73871;49.900;8.594;2024-03-02T11:31:18;16.80;99.90
13980;DHT22;73871;49.900;8.594;2024-03-02T11:33:45;16.90;99.90
13980;DHT22;73871;49.900;8.594;2024-03-02T11:36:12;16.60;99.90
13980;DHT22;73871;49.900;8.594;2024-03-02T11:38:39;16.60;99.90
13980;DHT22;73871;49.900;8.594;2024-03-02T11:41:09;16.30;99.90
13980;DHT22;73871;49.900;8.594;2024-03-02T11:43:38;15.90;99.90
13980;DHT22;73871;49.900;8.594;2024-03-02T11:46:08;15.80;99.90
13980;DHT22;73871;49.900;8.594;2024-03-02T11:48:36;15.80;99.90
13980;DHT22;73871;49.900;8.594;2024-03-02T11:51:04;15.80;99.90
13980;DHT22;73871;49.900;8.594;2024-03-02T11:53:31;16.00;99.90
13980;DHT22;73871;49.900;8.594;2024-03-02T11:56:02;16.20;99.90
13980;DHT22;73871;49.900;8.594;2024-03-02T11:58:30;16.30;99.90
13980;DHT22;73871;49.900;8.594;2024-03-02T12:00:57;16.40;99.90
13980;DHT22;73871;49.900;8.594;2024-03-02T12:03:25;16.60;99.90
13980;DHT22;73871;49.900;8.594;2024-03-02T12:05:54;16.60;99.90
13980;DHT22;73871;49.900;8.594;2024-03-02T12:08:21;16.60;99.90
13980;DHT22;73871;49.900;8.594;2024-03-02T12:10:59;16.60;99.90
13980;DHT22;73871;49.900;8.594;2024-03-02T12:13:31;16.60;99.90
13980;DHT22;73871;49.900;8.594;2024-03-02T12:15:58;16.20;99.90
13980;DHT22;73871;49.900;8.594;2024-03-02T12:18:25;15.80;99.90
13980;DHT22;73871;49.900;8.594;2024-03-02T12:20:53;15.90;99.90
13980;DHT22;73871;49.900;8.594;2024-03-02T12:23:24;15.80;99.90
13980;DHT22;73871;49.900;8.594;2024-03-02T12:25:52;15.90;99.90
13980;DHT22;73871;49.900;8.594;2024-03-02T12:28:19;16.00;99.90
13980;DHT22;73871;49.900;8.594;2024-03-02T12:30:47;16.30;99.90
13980;DHT22;73871;49.900;8.594;2024-03-02T12:33:15;16.30;99.90
13980;DHT22;73871;49.900;8.594;2024-03-02T12:35:43;16.50;99.90
13980;DHT22;73871;49.900;8.594;2024-03-02T12:38:10;16.60;99.90
13980;DHT22;73871;49.900;8.594;2024-03-02T12:40:38;16.60;99.90
13980;DHT22;73871;49.900;8.594;2024-03-02T12:43:05;16.60;99.90
13980;DHT22;73871;49.900;8.594;2024-03-02T12:45:34;16.60;99.90
13980;DHT22;73871;49.900;8.594;2024-03-02T12:48:01;16.60;99.90
13980;DHT22;73871;49.900;8.594;2024-03-02T12:50:29;16.80;99.90
13980;DHT22;73871;49.900;8.594;2024-03-02T12:52:57;16.80;99.90
13980;DHT22;73871;49.900;8.594;2024-03-02T12:55:24;16.70;99.90
13980;DHT22;73871;49.900;8.594;2024-03-02T12:57:52;16.90;99.90
13980;DHT22;73871;49.900;8.594;2024-03-02T13:00:21;16.90;99.90
13980;DHT22;73871;49.900;8.594;2024-03-02T13:02:50;16.80;99.90
13980;DHT22;73871;49.900;8.594;2024-03-02T13:05:19;16.80;99.90
13980;DHT22;73871;49.900;8.594;2024-03-02T13:07:47;16.60;99.90
13980;DHT22;73871;49.900;8.594;2024-03-02T13:10:15;16.30;99.90
13980;DHT22;73871;49.900;8.594;2024-03-02T13:12:43;16.40;99.90
13980;DHT22;73871;49.900;8.594;2024-03-02T13:15:10;16.30;99.90
13980;DHT22;73871;49.900;8.594;2024-03-02T13:17:44;16.20;99.90
13980;DHT22;73871;49.900;8.594;2024-03-02T13:20:13;16.40;99.90
13980;DHT22;73871;49.900;8.594;2024-03-02T13:22:41;16.60;99.90
13980;DHT22;73871;49.900;8.594;2024-03-02T13:25:08;16.70;99.90
13980;DHT22;73871;49.900;8.594;2024-03-02T13:27:37;16.90;99.90
13980;DHT22;73871;49.900;8.594;2024-03-02T13:30:06;17.10;99.90
13980;DHT22;73871;49.900;8.594;2024-03-02T13:32:33;17.40;99.90
13980;DHT22;73871;49.900;8.594;2024-03-02T13:35:03;17.80;99.90
13980;DHT22;73871;49.900;8.594;2024-03-02T13:37:30;18.10;99.90
13980;DHT22;73871;49.900;8.594;2024-03-02T13:39:57;18.20;99.90
13980;DHT22;73871;49.900;8.594;2024-03-02T13:42:24;18.20;99.90
13980;DHT22;73871;49.900;8.594;2024-03-02T13:44:51;17.80;99.90
13980;DHT22;73871;49.900;8.594;2024-03-02T13:47:19;16.90;99.90
13980;DHT22;73871;49.900;8.594;2024-03-02T13:49:48;16.40;99.90
13980;DHT22;73871;49.900;8.594;2024-03-02T13:52:15;16.50;99.90
13980;DHT22;73871;49.900;8.594;2024-03-02T13:54:47;16.60;99.90
13980;DHT22;73871;49.900;8.594;2024-03-02T13:57:14;16.80;99.90
13980;DHT22;73871;49.900;8.594;2024-03-02T13:59:42;16.50;99.90
13980;DHT22;73871;49.900;8.594;2024-03-02T14:02:11;16.20;99.90
13980;DHT22;73871;49.900;8.594;2024-03-02T14:04:38;16.10;99.90
13980;DHT22;73871;49.900;8.594;2024-03-02T14:07:06;16.10;99.90
13980;DHT22;73871;49.900;8.594;2024-03-02T14:09:38;16.30;99.90
13980;DHT22;73871;49.900;8.594;2024-03-02T14:12:06;16.40;99.90
13980;DHT22;73871;49.900;8.594;2024-03-02T14:14:33;16.10;99.90
13980;DHT22;73871;49.900;8.594;2024-03-02T14:17:00;16.00;99.90
13980;DHT22;73871;49.900;8.594;2024-03-02T14:19:32;16.10;99.90
13980;DHT22;73871;49.900;8.594;2024-03-02T14:21:59;16.00;99.90
13980;DHT22;73871;49.900;8.594;2024-03-02T14:24:27;16.00;99.90
13980;DHT22;73871;49.900;8.594;2024-03-02T14:26:56;15.90;99.90
13980;DHT22;73871;49.900;8.594;2024-03-02T14:29:45;16.00;99.90
13980;DHT22;73871;49.900;8.594;2024-03-02T14:32:12;16.50;99.90
13980;DHT22;73871;49.900;8.594;2024-03-02T14:34:39;16.60;99.90
13980;DHT22;73871;49.900;8.594;2024-03-02T14:37:06;16.60;99.90
13980;DHT22;73871;49.900;8.594;2024-03-02T14:39:34;16.50;99.90
13980;DHT22;73871;49.900;8.594;2024-03-02T14:42:02;16.40;99.90
13980;DHT22;73871;49.900;8.594;2024-03-02T14:44:28;16.40;99.90
13980;DHT22;73871;49.900;8.594;2024-03-02T14:46:55;16.50;99.90
13980;DHT22;73871;49.900;8.594;2024-03-02T14:49:25;16.30;99.90
13980;DHT22;73871;49.900;8.594;2024-03-02T14:51:52;15.90;99.90
13980;DHT22;73871;49.900;8.594;2024-03-02T14:54:19;15.70;99.90
13980;DHT22;73871;49.900;8.594;2024-03-02T14:56:46;15.60;99.90
13980;DHT22;73871;49.900;8.594;2024-03-02T14:59:13;15.50;99.90
13980;DHT22;73871;49.900;8.594;2024-03-02T15:01:40;15.30;99.90
13980;DHT22;73871;49.900;8.594;2024-03-02T15:04:06;15.30;99.90
13980;DHT22;73871;49.900;8.594;2024-03-02T15:06:33;15.30;99.90
13980;DHT22;73871;49.900;8.594;2024-03-02T15:09:00;15.40;99.90
13980;DHT22;73871;49.900;8.594;2024-03-02T15:11:28;15.40;99.90
13980;DHT22;73871;49.900;8.594;2024-03-02T15:13:55;15.50;99.90
13980;DHT22;73871;49.900;8.594;2024-03-02T15:16:22;15.50;99.90
13980;DHT22;73871;49.900;8.594;2024-03-02T15:18:48;15.80;99.90
13980;DHT22;73871;49.900;8.594;2024-03-02T15:21:15;15.90;99.90
13980;DHT22;73871;49.900;8.594;2024-03-02T15:23:43;16.10;99.90
13980;DHT22;73871;49.900;8.594;2024-03-02T15:26:09;16.30;99.90
13980;DHT22;73871;49.900;8.594;2024-03-02T15:28:38;16.00;99.90
13980;DHT22;73871;49.900;8.594;2024-03-02T15:31:05;16.10;99.90
13980;DHT22;73871;49.900;8.594;2024-03-02T15:33:32;16.20;99.90
13980;DHT22;73871;49.900;8.594;2024-03-02T15:36:00;16.10;99.90
13980;DHT22;73871;49.900;8.594;2024-03-02T15:38:27;16.10;99.90
13980;DHT22;73871;49.900;8.594;2024-03-02T15:41:00;16.10;99.90
13980;DHT22;73871;49.900;8.594;2024-03-02T15:43:27;16.10;99.90
13980;DHT22;73871;49.900;8.594;2024-03-02T15:45:55;16.10;99.90
13980;DHT22;73871;49.900;8.594;2024-03-02T15:48:22;16.00;99.90
13980;DHT22;73871;49.900;8.594;2024-03-02T15:50:50;15.90;99.90